sensor_id;sensor_type;location;lat;lon;timestamp;P1;durP1;ratioP1;P2;durP2;ratioP2
67092;SDS011;54011;50.772;7.730;2023-07-09T00:00:15;10.77;;;4.40;;
67092;SDS011;54011;50.772;7.730;2023-07-09T00:02:44;8.85;;;4.72;;
67092;SDS011;54011;50.772;7.730;2023-07-09T00:05:13;6.97;;;4.57;;
67092;SDS011;54011;50.772;7.730;2023-07-09T00:07:43;12.82;;;5.10;;
67092;SDS011;54011;50.772;7.730;2023-07-09T00:10:14;7.53;;;4.15;;
67092;SDS011;54011;50.772;7.730;2023-07-09T00:12:44;9.38;;;4.75;;
67092;SDS011;54011;50.772;7.730;2023-07-09T00:15:11;10.68;;;4.65;;
67092;SDS011;54011;50.772;7.730;2023-07-09T00:17:39;11.27;;;4.65;;
67092;SDS011;54011;50.772;7.730;2023-07-09T00:20:06;12.25;;;5.40;;
67092;SDS011;54011;50.772;7.730;2023-07-09T00:22:37;8.90;;;4.95;;
67092;SDS011;54011;50.772;7.730;2023-07-09T00:25:03;13.65;;;4.60;;
67092;SDS011;54011;50.772;7.730;2023-07-09T00:27:31;15.43;;;5.03;;
67092;SDS011;54011;50.772;7.730;2023-07-09T00:29:57;9.13;;;4.95;;
67092;SDS011;54011;50.772;7.730;2023-07-09T00:32:23;13.25;;;4.88;;
67092;SDS011;54011;50.772;7.730;2023-07-09T00:34:50;9.77;;;4.93;;
67092;SDS011;54011;50.772;7.730;2023-07-09T00:37:19;9.38;;;4.80;;
67092;SDS011;54011;50.772;7.730;2023-07-09T00:39:46;8.98;;;5.07;;
67092;SDS011;54011;50.772;7.730;2023-07-09T00:42:20;9.43;;;5.05;;
67092;SDS011;54011;50.772;7.730;2023-07-09T00:44:50;10.55;;;5.15;;
67092;SDS011;54011;50.772;7.730;2023-07-09T00:50:45;9.25;;;4.65;;
67092;SDS011;54011;50.772;7.730;2023-07-09T00:53:09;11.63;;;4.85;;
67092;SDS011;54011;50.772;7.730;2023-07-09T00:55:55;8.25;;;5.28;;
67092;SDS011;54011;50.772;7.730;2023-07-09T00:58:28;9.98;;;4.63;;
67092;SDS011;54011;50.772;7.730;2023-07-09T01:00:57;17.67;;;4.72;;
67092;SDS011;54011;50.772;7.730;2023-07-09T01:03:29;11.25;;;4.47;;
67092;SDS011;54011;50.772;7.730;2023-07-09T01:06:01;8.43;;;4.90;;
67092;SDS011;54011;50.772;7.730;2023-07-09T01:08:28;11.85;;;4.15;;
67092;SDS011;54011;50.772;7.730;2023-07-09T01:10:57;9.52;;;4.75;;
67092;SDS011;54011;50.772;7.730;2023-07-09T01:13:27;9.80;;;5.28;;
67092;SDS011;54011;50.772;7.730;2023-07-09T01:15:54;8.57;;;4.70;;
67092;SDS011;54011;50.772;7.730;2023-07-09T01:18:22;9.27;;;4.78;;
67092;SDS011;54011;50.772;7.730;2023-07-09T01:20:50;9.73;;;5.03;;
67092;SDS011;54011;50.772;7.730;2023-07-09T01:23:18;7.35;;;4.82;;
67092;SDS011;54011;50.772;7.730;2023-07-09T01:25:45;9.77;;;5.05;;
67092;SDS011;54011;50.772;7.730;2023-07-09T01:28:19;8.98;;;5.00;;
67092;SDS011;54011;50.772;7.730;2023-07-09T01:30:46;10.25;;;5.28;;
67092;SDS011;54011;50.772;7.730;2023-07-09T01:33:19;8.65;;;4.75;;
67092;SDS011;54011;50.772;7.730;2023-07-09T01:35:48;11.32;;;5.32;;
67092;SDS011;54011;50.772;7.730;2023-07-09T01:38:20;10.63;;;5.10;;
67092;SDS011;54011;50.772;7.730;2023-07-09T01:40:46;10.07;;;5.57;;
67092;SDS011;54011;50.772;7.730;2023-07-09T01:43:13;9.02;;;5.43;;
67092;SDS011;54011;50.772;7.730;2023-07-09T01:45:38;13.60;;;5.88;;
67092;SDS011;54011;50.772;7.730;2023-07-09T01:48:05;10.20;;;5.60;;
67092;SDS011;54011;50.772;7.730;2023-07-09T01:50:31;10.82;;;5.38;;
67092;SDS011;54011;50.772;7.730;2023-07-09T01:52:57;11.05;;;5.50;;
67092;SDS011;54011;50.772;7.730;2023-07-09T01:55:23;10.23;;;5.35;;
67092;SDS011;54011;50.772;7.730;2023-07-09T01:57:48;9.20;;;4.97;;
67092;SDS011;54011;50.772;7.730;2023-07-09T02:00:17;11.63;;;4.75;;
67092;SDS011;54011;50.772;7.730;2023-07-09T02:02:46;9.20;;;4.60;;
67092;SDS011;54011;50.772;7.730;2023-07-09T02:05:14;9.60;;;4.82;;
67092;SDS011;54011;50.772;7.730;2023-07-09T02:07:42;7.88;;;4.72;;
67092;SDS011;54011;50.772;7.730;2023-07-09T02:10:08;9.25;;;4.80;;
67092;SDS011;54011;50.772;7.730;2023-07-09T02:12:37;8.55;;;4.85;;
67092;SDS011;54011;50.772;7.730;2023-07-09T02:15:03;14.95;;;5.13;;
67092;SDS011;54011;50.772;7.730;2023-07-09T02:17:29;11.55;;;4.70;;
67092;SDS011;54011;50.772;7.730;2023-07-09T02:19:54;8.18;;;4.65;;
67092;SDS011;54011;50.772;7.730;2023-07-09T02:22:21;10.85;;;4.95;;
67092;SDS011;54011;50.772;7.730;2023-07-09T02:24:46;10.02;;;5.22;;
67092;SDS011;54011;50.772;7.730;2023-07-09T02:27:15;9.32;;;4.50;;
67092;SDS011;54011;50.772;7.730;2023-07-09T02:29:42;9.82;;;5.00;;
67092;SDS011;54011;50.772;7.730;2023-07-09T02:32:16;11.02;;;4.55;;
67092;SDS011;54011;50.772;7.730;2023-07-09T02:34:45;8.15;;;4.68;;
67092;SDS011;54011;50.772;7.730;2023-07-09T02:37:14;9.02;;;4.85;;
67092;SDS011;54011;50.772;7.730;2023-07-09T02:39:42;9.43;;;4.93;;
67092;SDS011;54011;50.772;7.730;2023-07-09T02:42:09;11.82;;;5.03;;
67092;SDS011;54011;50.772;7.730;2023-07-09T02:44:36;10.77;;;5.70;;
67092;SDS011;54011;50.772;7.730;2023-07-09T02:47:02;11.27;;;5.63;;
67092;SDS011;54011;50.772;7.730;2023-07-09T02:49:29;7.68;;;4.55;;
67092;SDS011;54011;50.772;7.730;2023-07-09T02:51:55;12.07;;;4.65;;
67092;SDS011;54011;50.772;7.730;2023-07-09T02:54:21;10.05;;;5.07;;
67092;SDS011;54011;50.772;7.730;2023-07-09T02:56:48;12.45;;;4.90;;
67092;SDS011;54011;50.772;7.730;2023-07-09T02:59:15;12.35;;;5.13;;
67092;SDS011;54011;50.772;7.730;2023-07-09T03:01:40;9.65;;;5.40;;
67092;SDS011;54011;50.772;7.730;2023-07-09T03:04:06;10.15;;;4.90;;
67092;SDS011;54011;50.772;7.730;2023-07-09T03:06:34;10.75;;;4.88;;
67092;SDS011;54011;50.772;7.730;2023-07-09T03:09:01;11.50;;;4.82;;
67092;SDS011;54011;50.772;7.730;2023-07-09T03:11:30;7.63;;;4.63;;
67092;SDS011;54011;50.772;7.730;2023-07-09T03:13:57;8.15;;;4.57;;
67092;SDS011;54011;50.772;7.730;2023-07-09T03:16:28;11.00;;;5.05;;
67092;SDS011;54011;50.772;7.730;2023-07-09T03:18:55;10.30;;;4.70;;
67092;SDS011;54011;50.772;7.730;2023-07-09T03:21:21;9.27;;;4.90;;
67092;SDS011;54011;50.772;7.730;2023-07-09T03:23:48;12.52;;;5.22;;
67092;SDS011;54011;50.772;7.730;2023-07-09T03:26:15;12.18;;;5.28;;
67092;SDS011;54011;50.772;7.730;2023-07-09T03:28:41;9.02;;;4.95;;
67092;SDS011;54011;50.772;7.730;2023-07-09T03:31:09;11.55;;;5.65;;
67092;SDS011;54011;50.772;7.730;2023-07-09T03:33:35;10.65;;;5.15;;
67092;SDS011;54011;50.772;7.730;2023-07-09T03:36:01;10.10;;;4.95;;
67092;SDS011;54011;50.772;7.730;2023-07-09T03:38:29;8.57;;;4.72;;
67092;SDS011;54011;50.772;7.730;2023-07-09T03:40:56;8.82;;;4.43;;
67092;SDS011;54011;50.772;7.730;2023-07-09T03:43:22;7.97;;;3.95;;
67092;SDS011;54011;50.772;7.730;2023-07-09T03:45:47;8.57;;;4.30;;
67092;SDS011;54011;50.772;7.730;2023-07-09T03:48:13;9.10;;;4.65;;
67092;SDS011;54011;50.772;7.730;2023-07-09T03:50:41;10.32;;;4.80;;
67092;SDS011;54011;50.772;7.730;2023-07-09T03:53:09;8.98;;;4.88;;
67092;SDS011;54011;50.772;7.730;2023-07-09T03:55:35;10.73;;;4.40;;
67092;SDS011;54011;50.772;7.730;2023-07-09T03:58:00;9.75;;;4.78;;
67092;SDS011;54011;50.772;7.730;2023-07-09T04:00:28;8.88;;;4.35;;
67092;SDS011;54011;50.772;7.730;2023-07-09T04:02:55;10.18;;;4.65;;
67092;SDS011;54011;50.772;7.730;2023-07-09T04:05:25;10.25;;;4.55;;
67092;SDS011;54011;50.772;7.730;2023-07-09T04:07:52;8.95;;;4.60;;
67092;SDS011;54011;50.772;7.730;2023-07-09T04:10:19;9.30;;;4.80;;
67092;SDS011;54011;50.772;7.730;2023-07-09T04:12:45;11.38;;;4.93;;
67092;SDS011;54011;50.772;7.730;2023-07-09T04:15:11;8.05;;;4.53;;
67092;SDS011;54011;50.772;7.730;2023-07-09T04:17:38;10.80;;;4.60;;
67092;SDS011;54011;50.772;7.730;2023-07-09T04:20:05;8.93;;;4.85;;
67092;SDS011;54011;50.772;7.730;2023-07-09T04:22:33;10.13;;;5.00;;
67092;SDS011;54011;50.772;7.730;2023-07-09T04:25:00;7.45;;;4.28;;
67092;SDS011;54011;50.772;7.730;2023-07-09T04:27:25;8.88;;;4.68;;
67092;SDS011;54011;50.772;7.730;2023-07-09T04:29:52;9.38;;;4.05;;
67092;SDS011;54011;50.772;7.730;2023-07-09T04:32:19;8.05;;;4.05;;
67092;SDS011;54011;50.772;7.730;2023-07-09T04:34:45;10.48;;;4.40;;
67092;SDS011;54011;50.772;7.730;2023-07-09T04:37:12;9.05;;;4.63;;
67092;SDS011;54011;50.772;7.730;2023-07-09T04:39:38;9.90;;;4.10;;
67092;SDS011;54011;50.772;7.730;2023-07-09T04:42:10;9.50;;;3.97;;
67092;SDS011;54011;50.772;7.730;2023-07-09T04:44:39;8.35;;;4.53;;
67092;SDS011;54011;50.772;7.730;2023-07-09T04:47:06;7.25;;;4.05;;
67092;SDS011;54011;50.772;7.730;2023-07-09T04:49:33;14.40;;;3.92;;
67092;SDS011;54011;50.772;7.730;2023-07-09T04:51:59;15.27;;;4.40;;
67092;SDS011;54011;50.772;7.730;2023-07-09T04:54:26;6.85;;;4.07;;
67092;SDS011;54011;50.772;7.730;2023-07-09T04:56:52;11.07;;;4.40;;
67092;SDS011;54011;50.772;7.730;2023-07-09T04:59:21;8.85;;;4.80;;
67092;SDS011;54011;50.772;7.730;2023-07-09T05:01:48;9.40;;;4.65;;
67092;SDS011;54011;50.772;7.730;2023-07-09T05:04:15;10.48;;;4.90;;
67092;SDS011;54011;50.772;7.730;2023-07-09T05:06:41;11.25;;;4.60;;
67092;SDS011;54011;50.772;7.730;2023-07-09T05:09:07;8.52;;;4.70;;
67092;SDS011;54011;50.772;7.730;2023-07-09T05:11:34;8.10;;;4.25;;
67092;SDS011;54011;50.772;7.730;2023-07-09T05:14:01;10.93;;;4.38;;
67092;SDS011;54011;50.772;7.730;2023-07-09T05:16:27;10.10;;;4.20;;
67092;SDS011;54011;50.772;7.730;2023-07-09T05:18:52;9.73;;;4.43;;
67092;SDS011;54011;50.772;7.730;2023-07-09T05:21:18;7.93;;;3.75;;
67092;SDS011;54011;50.772;7.730;2023-07-09T05:23:43;7.25;;;4.30;;
67092;SDS011;54011;50.772;7.730;2023-07-09T05:26:09;8.80;;;4.40;;
67092;SDS011;54011;50.772;7.730;2023-07-09T05:28:36;9.20;;;4.78;;
67092;SDS011;54011;50.772;7.730;2023-07-09T05:31:03;8.82;;;4.40;;
67092;SDS011;54011;50.772;7.730;2023-07-09T05:33:29;8.68;;;4.78;;
67092;SDS011;54011;50.772;7.730;2023-07-09T05:35:55;9.70;;;4.80;;
67092;SDS011;54011;50.772;7.730;2023-07-09T05:38:22;11.05;;;5.13;;
67092;SDS011;54011;50.772;7.730;2023-07-09T05:40:58;9.80;;;4.32;;
67092;SDS011;54011;50.772;7.730;2023-07-09T05:43:29;10.73;;;4.50;;
67092;SDS011;54011;50.772;7.730;2023-07-09T05:45:56;7.68;;;4.10;;
67092;SDS011;54011;50.772;7.730;2023-07-09T05:48:22;10.57;;;4.47;;
67092;SDS011;54011;50.772;7.730;2023-07-09T05:50:48;8.50;;;4.30;;
67092;SDS011;54011;50.772;7.730;2023-07-09T05:53:14;14.75;;;4.50;;
67092;SDS011;54011;50.772;7.730;2023-07-09T05:55:39;7.95;;;4.50;;
67092;SDS011;54011;50.772;7.730;2023-07-09T05:58:06;9.20;;;4.03;;
67092;SDS011;54011;50.772;7.730;2023-07-09T06:00:32;8.68;;;4.25;;
67092;SDS011;54011;50.772;7.730;2023-07-09T06:02:59;10.77;;;4.20;;
67092;SDS011;54011;50.772;7.730;2023-07-09T06:05:27;7.90;;;4.32;;
67092;SDS011;54011;50.772;7.730;2023-07-09T06:07:54;8.02;;;4.22;;
67092;SDS011;54011;50.772;7.730;2023-07-09T06:10:21;8.23;;;4.32;;
67092;SDS011;54011;50.772;7.730;2023-07-09T06:12:47;8.77;;;4.45;;
67092;SDS011;54011;50.772;7.730;2023-07-09T06:15:13;10.20;;;4.65;;
67092;SDS011;54011;50.772;7.730;2023-07-09T06:17:39;9.27;;;4.38;;
67092;SDS011;54011;50.772;7.730;2023-07-09T06:20:05;11.82;;;4.13;;
67092;SDS011;54011;50.772;7.730;2023-07-09T06:22:34;10.57;;;4.30;;
67092;SDS011;54011;50.772;7.730;2023-07-09T06:25:01;8.32;;;3.97;;
67092;SDS011;54011;50.772;7.730;2023-07-09T06:27:27;8.75;;;4.30;;
67092;SDS011;54011;50.772;7.730;2023-07-09T06:29:53;8.63;;;3.90;;
67092;SDS011;54011;50.772;7.730;2023-07-09T06:32:18;8.10;;;4.47;;
67092;SDS011;54011;50.772;7.730;2023-07-09T06:34:45;8.88;;;4.20;;
67092;SDS011;54011;50.772;7.730;2023-07-09T06:37:11;7.43;;;3.92;;
67092;SDS011;54011;50.772;7.730;2023-07-09T06:39:37;9.05;;;4.32;;
67092;SDS011;54011;50.772;7.730;2023-07-09T06:42:03;8.18;;;4.22;;
67092;SDS011;54011;50.772;7.730;2023-07-09T06:44:48;9.00;;;4.30;;
67092;SDS011;54011;50.772;7.730;2023-07-09T06:47:14;6.72;;;4.30;;
67092;SDS011;54011;50.772;7.730;2023-07-09T06:49:41;9.73;;;4.55;;
67092;SDS011;54011;50.772;7.730;2023-07-09T06:52:08;8.82;;;4.15;;
67092;SDS011;54011;50.772;7.730;2023-07-09T06:54:33;8.30;;;4.20;;
67092;SDS011;54011;50.772;7.730;2023-07-09T06:56:59;9.25;;;3.97;;
67092;SDS011;54011;50.772;7.730;2023-07-09T06:59:24;8.27;;;3.97;;
67092;SDS011;54011;50.772;7.730;2023-07-09T07:01:50;9.00;;;3.90;;
67092;SDS011;54011;50.772;7.730;2023-07-09T07:04:15;9.50;;;4.10;;
67092;SDS011;54011;50.772;7.730;2023-07-09T07:06:42;8.45;;;3.83;;
67092;SDS011;54011;50.772;7.730;2023-07-09T07:09:07;10.13;;;4.00;;
67092;SDS011;54011;50.772;7.730;2023-07-09T07:11:33;14.30;;;4.28;;
67092;SDS011;54011;50.772;7.730;2023-07-09T07:13:59;7.70;;;4.32;;
67092;SDS011;54011;50.772;7.730;2023-07-09T07:16:25;9.10;;;4.22;;
67092;SDS011;54011;50.772;7.730;2023-07-09T07:18:51;8.27;;;3.92;;
67092;SDS011;54011;50.772;7.730;2023-07-09T07:21:17;8.07;;;4.47;;
67092;SDS011;54011;50.772;7.730;2023-07-09T07:23:43;10.13;;;4.55;;
67092;SDS011;54011;50.772;7.730;2023-07-09T07:26:09;8.98;;;4.07;;
67092;SDS011;54011;50.772;7.730;2023-07-09T07:28:35;9.15;;;4.47;;
67092;SDS011;54011;50.772;7.730;2023-07-09T07:31:03;8.50;;;3.72;;
67092;SDS011;54011;50.772;7.730;2023-07-09T07:33:31;8.00;;;4.20;;
67092;SDS011;54011;50.772;7.730;2023-07-09T07:35:56;9.32;;;4.10;;
67092;SDS011;54011;50.772;7.730;2023-07-09T07:38:22;8.68;;;4.10;;
67092;SDS011;54011;50.772;7.730;2023-07-09T07:40:47;9.90;;;4.38;;
67092;SDS011;54011;50.772;7.730;2023-07-09T07:43:13;6.63;;;3.72;;
67092;SDS011;54011;50.772;7.730;2023-07-09T07:45:42;8.38;;;4.05;;
67092;SDS011;54011;50.772;7.730;2023-07-09T07:48:08;7.68;;;4.32;;
67092;SDS011;54011;50.772;7.730;2023-07-09T07:50:33;11.32;;;3.80;;
67092;SDS011;54011;50.772;7.730;2023-07-09T07:53:00;10.27;;;4.20;;
67092;SDS011;54011;50.772;7.730;2023-07-09T07:55:26;7.60;;;4.07;;
67092;SDS011;54011;50.772;7.730;2023-07-09T07:57:52;7.72;;;3.90;;
67092;SDS011;54011;50.772;7.730;2023-07-09T08:00:18;11.18;;;4.47;;
67092;SDS011;54011;50.772;7.730;2023-07-09T08:02:45;8.32;;;4.43;;
67092;SDS011;54011;50.772;7.730;2023-07-09T08:05:11;7.05;;;3.88;;
67092;SDS011;54011;50.772;7.730;2023-07-09T08:07:37;8.07;;;4.15;;
67092;SDS011;54011;50.772;7.730;2023-07-09T08:10:03;8.70;;;4.05;;
67092;SDS011;54011;50.772;7.730;2023-07-09T08:12:29;8.93;;;3.92;;
67092;SDS011;54011;50.772;7.730;2023-07-09T08:14:54;9.27;;;4.20;;
67092;SDS011;54011;50.772;7.730;2023-07-09T08:17:20;8.82;;;4.22;;
67092;SDS011;54011;50.772;7.730;2023-07-09T08:19:46;7.55;;;4.13;;
67092;SDS011;54011;50.772;7.730;2023-07-09T08:22:17;8.27;;;4.00;;
67092;SDS011;54011;50.772;7.730;2023-07-09T08:24:45;8.85;;;5.00;;
67092;SDS011;54011;50.772;7.730;2023-07-09T08:27:11;7.30;;;4.00;;
67092;SDS011;54011;50.772;7.730;2023-07-09T08:29:37;9.18;;;4.22;;
67092;SDS011;54011;50.772;7.730;2023-07-09T08:32:03;7.53;;;3.95;;
67092;SDS011;54011;50.772;7.730;2023-07-09T08:34:29;9.73;;;4.30;;
67092;SDS011;54011;50.772;7.730;2023-07-09T08:36:55;7.32;;;3.70;;
67092;SDS011;54011;50.772;7.730;2023-07-09T08:39:21;10.98;;;4.55;;
67092;SDS011;54011;50.772;7.730;2023-07-09T08:41:57;9.35;;;4.30;;
67092;SDS011;54011;50.772;7.730;2023-07-09T08:50:08;7.63;;;3.90;;
67092;SDS011;54011;50.772;7.730;2023-07-09T08:52:38;10.98;;;4.10;;
67092;SDS011;54011;50.772;7.730;2023-07-09T08:55:09;9.02;;;4.00;;
67092;SDS011;54011;50.772;7.730;2023-07-09T08:57:40;9.77;;;4.00;;
67092;SDS011;54011;50.772;7.730;2023-07-09T09:02:39;8.30;;;3.53;;
67092;SDS011;54011;50.772;7.730;2023-07-09T09:05:10;8.15;;;3.67;;
67092;SDS011;54011;50.772;7.730;2023-07-09T09:07:42;6.53;;;3.30;;
67092;SDS011;54011;50.772;7.730;2023-07-09T09:10:14;8.30;;;3.58;;
67092;SDS011;54011;50.772;7.730;2023-07-09T09:12:56;8.63;;;3.88;;
67092;SDS011;54011;50.772;7.730;2023-07-09T09:15:23;9.57;;;3.95;;
67092;SDS011;54011;50.772;7.730;2023-07-09T09:17:52;9.27;;;3.80;;
67092;SDS011;54011;50.772;7.730;2023-07-09T09:20:23;11.20;;;3.58;;
67092;SDS011;54011;50.772;7.730;2023-07-09T09:22:52;9.15;;;3.60;;
67092;SDS011;54011;50.772;7.730;2023-07-09T09:25:35;8.40;;;3.60;;
67092;SDS011;54011;50.772;7.730;2023-07-09T09:28:05;7.65;;;3.55;;
67092;SDS011;54011;50.772;7.730;2023-07-09T09:30:33;10.70;;;3.53;;
67092;SDS011;54011;50.772;7.730;2023-07-09T09:33:01;8.43;;;3.38;;
67092;SDS011;54011;50.772;7.730;2023-07-09T09:35:32;7.22;;;3.50;;
67092;SDS011;54011;50.772;7.730;2023-07-09T09:38:00;8.65;;;3.75;;
67092;SDS011;54011;50.772;7.730;2023-07-09T09:40:27;12.38;;;3.50;;
67092;SDS011;54011;50.772;7.730;2023-07-09T09:42:58;6.90;;;2.80;;
67092;SDS011;54011;50.772;7.730;2023-07-09T09:45:26;9.13;;;3.70;;
67092;SDS011;54011;50.772;7.730;2023-07-09T09:47:58;8.27;;;3.60;;
67092;SDS011;54011;50.772;7.730;2023-07-09T09:50:27;8.80;;;3.08;;
67092;SDS011;54011;50.772;7.730;2023-07-09T09:52:58;6.40;;;3.30;;
67092;SDS011;54011;50.772;7.730;2023-07-09T09:55:29;8.60;;;2.97;;
67092;SDS011;54011;50.772;7.730;2023-07-09T09:57:55;7.93;;;3.10;;
67092;SDS011;54011;50.772;7.730;2023-07-09T10:00:25;7.65;;;3.10;;
67092;SDS011;54011;50.772;7.730;2023-07-09T10:02:57;5.93;;;2.83;;
67092;SDS011;54011;50.772;7.730;2023-07-09T10:05:31;8.85;;;3.10;;
67092;SDS011;54011;50.772;7.730;2023-07-09T10:10:38;8.65;;;5.47;;
67092;SDS011;54011;50.772;7.730;2023-07-09T10:21:18;8.25;;;2.95;;
67092;SDS011;54011;50.772;7.730;2023-07-09T10:27:16;9.50;;;2.97;;
67092;SDS011;54011;50.772;7.730;2023-07-09T10:32:51;6.53;;;3.30;;
67092;SDS011;54011;50.772;7.730;2023-07-09T10:40:42;8.55;;;3.45;;
67092;SDS011;54011;50.772;7.730;2023-07-09T10:43:18;9.32;;;3.30;;
67092;SDS011;54011;50.772;7.730;2023-07-09T10:45:54;9.25;;;3.30;;
67092;SDS011;54011;50.772;7.730;2023-07-09T10:48:38;7.45;;;3.17;;
67092;SDS011;54011;50.772;7.730;2023-07-09T10:51:31;9.70;;;3.10;;
67092;SDS011;54011;50.772;7.730;2023-07-09T10:56:31;11.15;;;3.40;;
67092;SDS011;54011;50.772;7.730;2023-07-09T11:01:33;8.07;;;3.40;;
67092;SDS011;54011;50.772;7.730;2023-07-09T11:04:14;6.15;;;3.50;;
67092;SDS011;54011;50.772;7.730;2023-07-09T11:07:03;12.77;;;5.20;;
67092;SDS011;54011;50.772;7.730;2023-07-09T11:09:44;12.15;;;3.28;;
67092;SDS011;54011;50.772;7.730;2023-07-09T11:12:19;8.23;;;3.47;;
67092;SDS011;54011;50.772;7.730;2023-07-09T11:15:20;7.47;;;3.13;;
67092;SDS011;54011;50.772;7.730;2023-07-09T11:17:54;7.57;;;2.90;;
67092;SDS011;54011;50.772;7.730;2023-07-09T11:20:25;8.43;;;2.92;;
67092;SDS011;54011;50.772;7.730;2023-07-09T11:23:02;7.18;;;3.25;;
67092;SDS011;54011;50.772;7.730;2023-07-09T11:25:42;8.80;;;3.30;;
67092;SDS011;54011;50.772;7.730;2023-07-09T11:28:12;7.07;;;3.10;;
67092;SDS011;54011;50.772;7.730;2023-07-09T11:30:46;6.50;;;2.85;;
67092;SDS011;54011;50.772;7.730;2023-07-09T11:33:17;7.50;;;2.88;;
67092;SDS011;54011;50.772;7.730;2023-07-09T11:35:50;11.45;;;3.30;;
67092;SDS011;54011;50.772;7.730;2023-07-09T11:38:19;7.75;;;3.17;;
67092;SDS011;54011;50.772;7.730;2023-07-09T11:40:47;7.38;;;3.00;;
67092;SDS011;54011;50.772;7.730;2023-07-09T11:43:26;8.07;;;2.90;;
67092;SDS011;54011;50.772;7.730;2023-07-09T11:45:53;5.20;;;2.88;;
67092;SDS011;54011;50.772;7.730;2023-07-09T11:48:25;7.25;;;3.10;;
67092;SDS011;54011;50.772;7.730;2023-07-09T11:50:54;6.97;;;2.90;;
67092;SDS011;54011;50.772;7.730;2023-07-09T11:56:19;5.93;;;3.15;;
67092;SDS011;54011;50.772;7.730;2023-07-09T11:58:47;7.30;;;2.97;;
67092;SDS011;54011;50.772;7.730;2023-07-09T12:01:16;6.45;;;2.90;;
67092;SDS011;54011;50.772;7.730;2023-07-09T12:03:44;6.03;;;2.67;;
67092;SDS011;54011;50.772;7.730;2023-07-09T12:08:58;8.98;;;3.17;;
67092;SDS011;54011;50.772;7.730;2023-07-09T12:11:30;7.03;;;2.87;;
67092;SDS011;54011;50.772;7.730;2023-07-09T12:14:09;10.70;;;3.22;;
67092;SDS011;54011;50.772;7.730;2023-07-09T12:16:40;5.65;;;2.90;;
67092;SDS011;54011;50.772;7.730;2023-07-09T12:19:11;6.10;;;3.08;;
67092;SDS011;54011;50.772;7.730;2023-07-09T12:21:38;7.22;;;3.08;;
67092;SDS011;54011;50.772;7.730;2023-07-09T12:27:16;7.50;;;3.13;;
67092;SDS011;54011;50.772;7.730;2023-07-09T12:29:49;9.68;;;3.60;;
67092;SDS011;54011;50.772;7.730;2023-07-09T12:32:18;6.55;;;3.28;;
67092;SDS011;54011;50.772;7.730;2023-07-09T12:34:52;8.60;;;3.47;;
67092;SDS011;54011;50.772;7.730;2023-07-09T12:37:20;8.27;;;3.20;;
67092;SDS011;54011;50.772;7.730;2023-07-09T12:39:49;8.35;;;3.00;;
67092;SDS011;54011;50.772;7.730;2023-07-09T12:42:18;6.75;;;3.20;;
67092;SDS011;54011;50.772;7.730;2023-07-09T12:44:45;8.48;;;3.78;;
67092;SDS011;54011;50.772;7.730;2023-07-09T12:47:14;9.55;;;3.22;;
67092;SDS011;54011;50.772;7.730;2023-07-09T12:49:42;7.15;;;3.53;;
67092;SDS011;54011;50.772;7.730;2023-07-09T12:52:16;6.63;;;3.03;;
67092;SDS011;54011;50.772;7.730;2023-07-09T12:54:51;9.18;;;3.45;;
67092;SDS011;54011;50.772;7.730;2023-07-09T12:57:22;6.53;;;3.38;;
67092;SDS011;54011;50.772;7.730;2023-07-09T12:59:50;6.00;;;3.03;;
67092;SDS011;54011;50.772;7.730;2023-07-09T13:02:23;9.27;;;3.33;;
67092;SDS011;54011;50.772;7.730;2023-07-09T13:05:03;10.85;;;3.65;;
67092;SDS011;54011;50.772;7.730;2023-07-09T13:07:33;8.23;;;3.20;;
67092;SDS011;54011;50.772;7.730;2023-07-09T13:10:44;7.65;;;3.45;;
67092;SDS011;54011;50.772;7.730;2023-07-09T13:12:53;5.80;;;3.20;;
67092;SDS011;54011;50.772;7.730;2023-07-09T13:18:00;6.50;;;3.50;;
67092;SDS011;54011;50.772;7.730;2023-07-09T13:20:29;9.88;;;3.88;;
67092;SDS011;54011;50.772;7.730;2023-07-09T13:22:56;7.70;;;3.50;;
67092;SDS011;54011;50.772;7.730;2023-07-09T13:25:22;5.95;;;3.58;;
67092;SDS011;54011;50.772;7.730;2023-07-09T13:27:48;5.90;;;3.38;;
67092;SDS011;54011;50.772;7.730;2023-07-09T13:30:14;9.40;;;3.17;;
67092;SDS011;54011;50.772;7.730;2023-07-09T13:32:40;9.90;;;3.33;;
67092;SDS011;54011;50.772;7.730;2023-07-09T13:35:13;9.95;;;3.47;;
67092;SDS011;54011;50.772;7.730;2023-07-09T13:37:43;7.18;;;3.42;;
67092;SDS011;54011;50.772;7.730;2023-07-09T13:40:11;6.20;;;3.20;;
67092;SDS011;54011;50.772;7.730;2023-07-09T13:42:41;8.30;;;3.22;;
67092;SDS011;54011;50.772;7.730;2023-07-09T13:45:15;8.75;;;3.40;;
67092;SDS011;54011;50.772;7.730;2023-07-09T13:47:46;8.57;;;3.38;;
67092;SDS011;54011;50.772;7.730;2023-07-09T13:50:13;11.52;;;3.60;;
67092;SDS011;54011;50.772;7.730;2023-07-09T13:52:41;7.80;;;3.70;;
67092;SDS011;54011;50.772;7.730;2023-07-09T13:55:14;9.75;;;3.53;;
67092;SDS011;54011;50.772;7.730;2023-07-09T13:57:42;7.75;;;3.90;;
67092;SDS011;54011;50.772;7.730;2023-07-09T14:00:09;8.63;;;3.60;;
67092;SDS011;54011;50.772;7.730;2023-07-09T14:02:37;7.80;;;3.72;;
67092;SDS011;54011;50.772;7.730;2023-07-09T14:05:04;9.10;;;3.65;;
67092;SDS011;54011;50.772;7.730;2023-07-09T14:07:34;8.63;;;3.88;;
67092;SDS011;54011;50.772;7.730;2023-07-09T14:10:01;7.57;;;3.72;;
67092;SDS011;54011;50.772;7.730;2023-07-09T14:12:31;7.60;;;3.50;;
67092;SDS011;54011;50.772;7.730;2023-07-09T14:15:12;8.85;;;4.00;;
67092;SDS011;54011;50.772;7.730;2023-07-09T14:17:40;9.25;;;3.47;;
67092;SDS011;54011;50.772;7.730;2023-07-09T14:20:07;7.03;;;3.70;;
67092;SDS011;54011;50.772;7.730;2023-07-09T14:22:36;7.95;;;3.60;;
67092;SDS011;54011;50.772;7.730;2023-07-09T14:25:04;11.60;;;3.75;;
67092;SDS011;54011;50.772;7.730;2023-07-09T14:27:31;7.40;;;3.30;;
67092;SDS011;54011;50.772;7.730;2023-07-09T14:30:00;9.40;;;3.30;;
67092;SDS011;54011;50.772;7.730;2023-07-09T14:35:20;9.38;;;3.33;;
67092;SDS011;54011;50.772;7.730;2023-07-09T14:37:49;9.05;;;3.25;;
67092;SDS011;54011;50.772;7.730;2023-07-09T14:40:22;9.32;;;3.38;;
67092;SDS011;54011;50.772;7.730;2023-07-09T14:42:50;7.20;;;3.50;;
67092;SDS011;54011;50.772;7.730;2023-07-09T14:47:44;7.60;;;3.42;;
67092;SDS011;54011;50.772;7.730;2023-07-09T14:50:10;7.80;;;3.58;;
67092;SDS011;54011;50.772;7.730;2023-07-09T14:52:36;10.02;;;3.30;;
67092;SDS011;54011;50.772;7.730;2023-07-09T14:55:03;7.82;;;3.30;;
67092;SDS011;54011;50.772;7.730;2023-07-09T14:57:30;7.88;;;3.40;;
67092;SDS011;54011;50.772;7.730;2023-07-09T14:59:58;9.45;;;3.60;;
67092;SDS011;54011;50.772;7.730;2023-07-09T15:02:34;8.98;;;3.63;;
67092;SDS011;54011;50.772;7.730;2023-07-09T15:05:02;11.65;;;3.88;;
67092;SDS011;54011;50.772;7.730;2023-07-09T15:07:38;13.23;;;3.97;;
67092;SDS011;54011;50.772;7.730;2023-07-09T15:10:03;9.32;;;3.78;;
67092;SDS011;54011;50.772;7.730;2023-07-09T15:12:33;8.80;;;3.43;;
67092;SDS011;54011;50.772;7.730;2023-07-09T15:15:18;8.10;;;4.00;;
67092;SDS011;54011;50.772;7.730;2023-07-09T15:17:46;8.15;;;3.33;;
67092;SDS011;54011;50.772;7.730;2023-07-09T15:20:22;7.18;;;3.38;;
67092;SDS011;54011;50.772;7.730;2023-07-09T15:22:49;6.65;;;3.13;;
67092;SDS011;54011;50.772;7.730;2023-07-09T15:25:20;5.43;;;3.22;;
67092;SDS011;54011;50.772;7.730;2023-07-09T15:27:48;8.80;;;3.78;;
67092;SDS011;54011;50.772;7.730;2023-07-09T15:30:18;13.10;;;3.72;;
67092;SDS011;54011;50.772;7.730;2023-07-09T15:32:47;9.68;;;2.95;;
67092;SDS011;54011;50.772;7.730;2023-07-09T15:35:14;16.33;;;3.40;;
67092;SDS011;54011;50.772;7.730;2023-07-09T15:37:41;12.55;;;3.40;;
67092;SDS011;54011;50.772;7.730;2023-07-09T15:40:13;9.88;;;3.47;;
67092;SDS011;54011;50.772;7.730;2023-07-09T15:42:44;10.52;;;3.38;;
67092;SDS011;54011;50.772;7.730;2023-07-09T15:45:16;8.02;;;3.20;;
67092;SDS011;54011;50.772;7.730;2023-07-09T15:47:42;11.30;;;3.38;;